sensor_id;sensor_type;location;lat;lon;timestamp;P1;durP1;ratioP1;P2;durP2;ratioP2
9072;SDS011;4572;41.642;25.370;2023-03-04T00:00:19;26.17;;;16.17;;
9072;SDS011;4572;41.642;25.370;2023-03-04T00:02:45;23.70;;;15.23;;
9072;SDS011;4572;41.642;25.370;2023-03-04T00:05:10;26.27;;;16.47;;
9072;SDS011;4572;41.642;25.370;2023-03-04T00:07:36;26.53;;;15.77;;
9072;SDS011;4572;41.642;25.370;2023-03-04T00:10:01;25.23;;;16.30;;
9072;SDS011;4572;41.642;25.370;2023-03-04T00:12:27;22.03;;;15.10;;
9072;SDS011;4572;41.642;25.370;2023-03-04T00:14:53;25.40;;;16.40;;
9072;SDS011;4572;41.642;25.370;2023-03-04T00:17:18;23.00;;;15.80;;
9072;SDS011;4572;41.642;25.370;2023-03-04T00:19:43;21.90;;;14.63;;
9072;SDS011;4572;41.642;25.370;2023-03-04T00:22:09;20.53;;;13.87;;
9072;SDS011;4572;41.642;25.370;2023-03-04T00:24:34;21.77;;;14.23;;
9072;SDS011;4572;41.642;25.370;2023-03-04T00:27:00;21.67;;;13.57;;
9072;SDS011;4572;41.642;25.370;2023-03-04T00:29:26;20.97;;;12.83;;
9072;SDS011;4572;41.642;25.370;2023-03-04T00:31:51;20.93;;;13.40;;
9072;SDS011;4572;41.642;25.370;2023-03-04T00:34:17;20.47;;;13.40;;
9072;SDS011;4572;41.642;25.370;2023-03-04T00:36:42;19.40;;;12.93;;
9072;SDS011;4572;41.642;25.370;2023-03-04T00:39:09;17.27;;;12.23;;
9072;SDS011;4572;41.642;25.370;2023-03-04T00:41:36;19.17;;;12.47;;
9072;SDS011;4572;41.642;25.370;2023-03-04T00:44:02;18.47;;;12.50;;
9072;SDS011;4572;41.642;25.370;2023-03-04T00:46:27;18.57;;;12.43;;
9072;SDS011;4572;41.642;25.370;2023-03-04T00:48:53;20.97;;;13.23;;
9072;SDS011;4572;41.642;25.370;2023-03-04T00:51:18;24.47;;;14.50;;
9072;SDS011;4572;41.642;25.370;2023-03-04T00:53:43;20.00;;;13.97;;
9072;SDS011;4572;41.642;25.370;2023-03-04T00:56:09;20.63;;;14.73;;
9072;SDS011;4572;41.642;25.370;2023-03-04T00:58:34;19.20;;;13.50;;
9072;SDS011;4572;41.642;25.370;2023-03-04T01:01:00;17.93;;;11.67;;
9072;SDS011;4572;41.642;25.370;2023-03-04T01:03:26;17.70;;;10.70;;
9072;SDS011;4572;41.642;25.370;2023-03-04T01:05:55;14.77;;;10.00;;
9072;SDS011;4572;41.642;25.370;2023-03-04T01:08:21;14.90;;;10.30;;
9072;SDS011;4572;41.642;25.370;2023-03-04T01:10:46;13.17;;;9.63;;
9072;SDS011;4572;41.642;25.370;2023-03-04T01:13:12;13.70;;;9.67;;
9072;SDS011;4572;41.642;25.370;2023-03-04T01:15:38;14.60;;;10.50;;
9072;SDS011;4572;41.642;25.370;2023-03-04T01:18:03;14.07;;;10.27;;
9072;SDS011;4572;41.642;25.370;2023-03-04T01:20:29;14.37;;;9.83;;
9072;SDS011;4572;41.642;25.370;2023-03-04T01:22:54;13.87;;;9.97;;
9072;SDS011;4572;41.642;25.370;2023-03-04T01:25:20;12.63;;;9.30;;
9072;SDS011;4572;41.642;25.370;2023-03-04T01:27:45;15.03;;;10.00;;
9072;SDS011;4572;41.642;25.370;2023-03-04T01:30:11;14.57;;;10.00;;
9072;SDS011;4572;41.642;25.370;2023-03-04T01:32:36;12.57;;;9.50;;
9072;SDS011;4572;41.642;25.370;2023-03-04T01:35:02;15.10;;;9.83;;
9072;SDS011;4572;41.642;25.370;2023-03-04T01:37:28;13.90;;;9.77;;
9072;SDS011;4572;41.642;25.370;2023-03-04T01:39:53;14.10;;;9.93;;
9072;SDS011;4572;41.642;25.370;2023-03-04T01:42:20;15.30;;;9.77;;
9072;SDS011;4572;41.642;25.370;2023-03-04T01:44:46;12.33;;;8.97;;
9072;SDS011;4572;41.642;25.370;2023-03-04T01:47:12;13.90;;;8.70;;
9072;SDS011;4572;41.642;25.370;2023-03-04T01:49:38;10.80;;;8.23;;
9072;SDS011;4572;41.642;25.370;2023-03-04T01:52:04;11.53;;;7.77;;
9072;SDS011;4572;41.642;25.370;2023-03-04T01:54:30;12.50;;;8.70;;
9072;SDS011;4572;41.642;25.370;2023-03-04T01:56:55;13.03;;;9.13;;
9072;SDS011;4572;41.642;25.370;2023-03-04T01:59:23;11.80;;;8.97;;
9072;SDS011;4572;41.642;25.370;2023-03-04T02:01:54;13.70;;;9.27;;
9072;SDS011;4572;41.642;25.370;2023-03-04T02:04:22;12.00;;;9.10;;
9072;SDS011;4572;41.642;25.370;2023-03-04T02:06:49;12.83;;;8.97;;
9072;SDS011;4572;41.642;25.370;2023-03-04T02:09:15;12.33;;;8.77;;
9072;SDS011;4572;41.642;25.370;2023-03-04T02:11:42;13.30;;;9.67;;
9072;SDS011;4572;41.642;25.370;2023-03-04T02:14:09;14.63;;;9.47;;
9072;SDS011;4572;41.642;25.370;2023-03-04T02:16:35;11.93;;;8.77;;
9072;SDS011;4572;41.642;25.370;2023-03-04T02:19:01;15.87;;;9.87;;
9072;SDS011;4572;41.642;25.370;2023-03-04T02:21:32;13.93;;;9.80;;
9072;SDS011;4572;41.642;25.370;2023-03-04T02:26:30;26.20;;;15.40;;
9072;SDS011;4572;41.642;25.370;2023-03-04T02:28:57;23.20;;;14.03;;
9072;SDS011;4572;41.642;25.370;2023-03-04T02:33:58;30.70;;;16.63;;
9072;SDS011;4572;41.642;25.370;2023-03-04T02:36:26;19.20;;;11.63;;
9072;SDS011;4572;41.642;25.370;2023-03-04T02:38:53;17.40;;;11.03;;
9072;SDS011;4572;41.642;25.370;2023-03-04T02:41:20;17.03;;;11.87;;
9072;SDS011;4572;41.642;25.370;2023-03-04T02:43:51;15.60;;;10.60;;
9072;SDS011;4572;41.642;25.370;2023-03-04T02:46:18;14.37;;;10.57;;
9072;SDS011;4572;41.642;25.370;2023-03-04T02:48:44;15.47;;;10.90;;
9072;SDS011;4572;41.642;25.370;2023-03-04T02:51:09;14.77;;;10.57;;
9072;SDS011;4572;41.642;25.370;2023-03-04T02:53:34;16.13;;;11.20;;
9072;SDS011;4572;41.642;25.370;2023-03-04T02:56:00;18.87;;;10.70;;
9072;SDS011;4572;41.642;25.370;2023-03-04T02:58:26;14.07;;;10.53;;
9072;SDS011;4572;41.642;25.370;2023-03-04T03:00:51;17.30;;;10.93;;
9072;SDS011;4572;41.642;25.370;2023-03-04T03:03:17;17.70;;;11.70;;
9072;SDS011;4572;41.642;25.370;2023-03-04T03:05:42;16.63;;;10.93;;
9072;SDS011;4572;41.642;25.370;2023-03-04T03:08:08;14.60;;;10.47;;
9072;SDS011;4572;41.642;25.370;2023-03-04T03:10:34;17.27;;;11.90;;
9072;SDS011;4572;41.642;25.370;2023-03-04T03:12:59;16.37;;;10.97;;
9072;SDS011;4572;41.642;25.370;2023-03-04T03:15:25;13.97;;;10.30;;
9072;SDS011;4572;41.642;25.370;2023-03-04T03:17:50;15.20;;;10.23;;
9072;SDS011;4572;41.642;25.370;2023-03-04T03:20:16;16.70;;;10.63;;
9072;SDS011;4572;41.642;25.370;2023-03-04T03:22:42;14.37;;;9.40;;
9072;SDS011;4572;41.642;25.370;2023-03-04T03:25:09;14.77;;;9.47;;
9072;SDS011;4572;41.642;25.370;2023-03-04T03:27:35;15.03;;;10.27;;
9072;SDS011;4572;41.642;25.370;2023-03-04T03:30:01;15.33;;;9.67;;
9072;SDS011;4572;41.642;25.370;2023-03-04T03:32:26;18.60;;;11.07;;
9072;SDS011;4572;41.642;25.370;2023-03-04T03:34:52;16.07;;;10.47;;
9072;SDS011;4572;41.642;25.370;2023-03-04T03:37:17;14.53;;;10.00;;
9072;SDS011;4572;41.642;25.370;2023-03-04T03:39:43;15.40;;;9.70;;
9072;SDS011;4572;41.642;25.370;2023-03-04T03:42:08;14.23;;;9.60;;
9072;SDS011;4572;41.642;25.370;2023-03-04T03:44:34;12.57;;;8.77;;
9072;SDS011;4572;41.642;25.370;2023-03-04T03:46:59;12.67;;;8.67;;
9072;SDS011;4572;41.642;25.370;2023-03-04T03:49:25;13.93;;;8.57;;
9072;SDS011;4572;41.642;25.370;2023-03-04T03:51:50;12.50;;;9.10;;
9072;SDS011;4572;41.642;25.370;2023-03-04T03:54:16;12.13;;;8.67;;
9072;SDS011;4572;41.642;25.370;2023-03-04T03:56:41;12.23;;;8.57;;
9072;SDS011;4572;41.642;25.370;2023-03-04T03:59:07;14.20;;;9.77;;
9072;SDS011;4572;41.642;25.370;2023-03-04T04:01:32;14.87;;;9.53;;
9072;SDS011;4572;41.642;25.370;2023-03-04T04:03:59;13.23;;;9.57;;
9072;SDS011;4572;41.642;25.370;2023-03-04T04:06:25;16.97;;;9.00;;
9072;SDS011;4572;41.642;25.370;2023-03-04T04:08:50;12.43;;;9.00;;
9072;SDS011;4572;41.642;25.370;2023-03-04T04:11:16;13.27;;;9.30;;
9072;SDS011;4572;41.642;25.370;2023-03-04T04:13:41;13.87;;;9.60;;
9072;SDS011;4572;41.642;25.370;2023-03-04T04:16:08;13.60;;;9.77;;
9072;SDS011;4572;41.642;25.370;2023-03-04T04:18:34;12.43;;;9.07;;
9072;SDS011;4572;41.642;25.370;2023-03-04T04:21:00;17.00;;;11.67;;
9072;SDS011;4572;41.642;25.370;2023-03-04T04:23:25;15.10;;;10.50;;
9072;SDS011;4572;41.642;25.370;2023-03-04T04:25:53;12.53;;;9.50;;
9072;SDS011;4572;41.642;25.370;2023-03-04T04:28:19;15.93;;;9.60;;
9072;SDS011;4572;41.642;25.370;2023-03-04T04:30:44;12.47;;;9.47;;
9072;SDS011;4572;41.642;25.370;2023-03-04T04:33:10;15.07;;;9.00;;
9072;SDS011;4572;41.642;25.370;2023-03-04T04:35:35;14.27;;;9.37;;
9072;SDS011;4572;41.642;25.370;2023-03-04T04:38:03;12.53;;;8.93;;
9072;SDS011;4572;41.642;25.370;2023-03-04T04:40:30;14.83;;;9.33;;
9072;SDS011;4572;41.642;25.370;2023-03-04T04:42:55;13.57;;;9.03;;
9072;SDS011;4572;41.642;25.370;2023-03-04T04:45:21;21.27;;;12.43;;
9072;SDS011;4572;41.642;25.370;2023-03-04T04:47:49;17.03;;;11.83;;
9072;SDS011;4572;41.642;25.370;2023-03-04T04:50:15;20.53;;;13.37;;
9072;SDS011;4572;41.642;25.370;2023-03-04T04:52:40;14.57;;;10.20;;
9072;SDS011;4572;41.642;25.370;2023-03-04T04:55:06;17.03;;;11.27;;
9072;SDS011;4572;41.642;25.370;2023-03-04T04:57:32;17.27;;;11.50;;
9072;SDS011;4572;41.642;25.370;2023-03-04T04:59:58;18.13;;;11.97;;
9072;SDS011;4572;41.642;25.370;2023-03-04T05:02:24;14.57;;;8.77;;
9072;SDS011;4572;41.642;25.370;2023-03-04T05:04:49;13.17;;;8.67;;
9072;SDS011;4572;41.642;25.370;2023-03-04T05:07:15;13.53;;;8.43;;
9072;SDS011;4572;41.642;25.370;2023-03-04T05:09:40;12.23;;;8.80;;
9072;SDS011;4572;41.642;25.370;2023-03-04T05:12:06;12.93;;;9.47;;
9072;SDS011;4572;41.642;25.370;2023-03-04T05:14:31;12.67;;;9.30;;
9072;SDS011;4572;41.642;25.370;2023-03-04T05:16:57;13.07;;;8.80;;
9072;SDS011;4572;41.642;25.370;2023-03-04T05:19:22;13.57;;;9.27;;
9072;SDS011;4572;41.642;25.370;2023-03-04T05:21:47;15.33;;;8.67;;
9072;SDS011;4572;41.642;25.370;2023-03-04T05:24:13;12.80;;;8.47;;
9072;SDS011;4572;41.642;25.370;2023-03-04T05:26:38;13.63;;;9.33;;
9072;SDS011;4572;41.642;25.370;2023-03-04T05:29:04;16.83;;;10.10;;
9072;SDS011;4572;41.642;25.370;2023-03-04T05:31:29;18.57;;;11.80;;
9072;SDS011;4572;41.642;25.370;2023-03-04T05:33:55;16.10;;;11.10;;
9072;SDS011;4572;41.642;25.370;2023-03-04T05:36:20;19.17;;;13.97;;
9072;SDS011;4572;41.642;25.370;2023-03-04T05:38:46;23.50;;;15.07;;
9072;SDS011;4572;41.642;25.370;2023-03-04T05:41:11;17.03;;;11.23;;
9072;SDS011;4572;41.642;25.370;2023-03-04T05:43:36;13.37;;;9.73;;
9072;SDS011;4572;41.642;25.370;2023-03-04T05:46:07;15.00;;;9.97;;
9072;SDS011;4572;41.642;25.370;2023-03-04T05:48:35;18.70;;;10.87;;
9072;SDS011;4572;41.642;25.370;2023-03-04T05:51:01;14.73;;;10.37;;
9072;SDS011;4572;41.642;25.370;2023-03-04T05:53:27;15.10;;;10.83;;
9072;SDS011;4572;41.642;25.370;2023-03-04T05:55:53;16.73;;;11.63;;
9072;SDS011;4572;41.642;25.370;2023-03-04T05:58:18;15.70;;;12.10;;
9072;SDS011;4572;41.642;25.370;2023-03-04T06:00:44;21.37;;;13.70;;
9072;SDS011;4572;41.642;25.370;2023-03-04T06:03:16;17.57;;;12.33;;
9072;SDS011;4572;41.642;25.370;2023-03-04T06:05:43;18.43;;;13.77;;
9072;SDS011;4572;41.642;25.370;2023-03-04T06:08:09;17.00;;;12.40;;
9072;SDS011;4572;41.642;25.370;2023-03-04T06:10:35;18.03;;;12.50;;
9072;SDS011;4572;41.642;25.370;2023-03-04T06:13:01;19.80;;;14.87;;
9072;SDS011;4572;41.642;25.370;2023-03-04T06:15:26;19.87;;;13.50;;
9072;SDS011;4572;41.642;25.370;2023-03-04T06:17:52;21.83;;;13.57;;
9072;SDS011;4572;41.642;25.370;2023-03-04T06:20:17;18.10;;;13.43;;
9072;SDS011;4572;41.642;25.370;2023-03-04T06:22:43;18.97;;;12.63;;
9072;SDS011;4572;41.642;25.370;2023-03-04T06:25:08;17.50;;;12.40;;
9072;SDS011;4572;41.642;25.370;2023-03-04T06:27:34;18.17;;;11.67;;
9072;SDS011;4572;41.642;25.370;2023-03-04T06:29:59;32.33;;;11.87;;
9072;SDS011;4572;41.642;25.370;2023-03-04T06:32:26;16.07;;;11.87;;
9072;SDS011;4572;41.642;25.370;2023-03-04T06:34:52;15.53;;;11.80;;
9072;SDS011;4572;41.642;25.370;2023-03-04T06:37:18;20.73;;;13.67;;
9072;SDS011;4572;41.642;25.370;2023-03-04T06:39:43;21.03;;;14.60;;
9072;SDS011;4572;41.642;25.370;2023-03-04T06:42:10;15.03;;;11.37;;
9072;SDS011;4572;41.642;25.370;2023-03-04T06:44:35;19.07;;;13.27;;
9072;SDS011;4572;41.642;25.370;2023-03-04T06:47:01;16.37;;;11.63;;
9072;SDS011;4572;41.642;25.370;2023-03-04T06:49:26;13.27;;;10.33;;
9072;SDS011;4572;41.642;25.370;2023-03-04T06:51:52;10.83;;;8.93;;
9072;SDS011;4572;41.642;25.370;2023-03-04T06:54:17;12.37;;;9.60;;
9072;SDS011;4572;41.642;25.370;2023-03-04T06:56:44;11.50;;;8.60;;
9072;SDS011;4572;41.642;25.370;2023-03-04T06:59:09;13.20;;;8.70;;
9072;SDS011;4572;41.642;25.370;2023-03-04T07:01:35;12.50;;;9.03;;
9072;SDS011;4572;41.642;25.370;2023-03-04T07:04:01;14.60;;;9.17;;
9072;SDS011;4572;41.642;25.370;2023-03-04T07:06:26;12.93;;;8.43;;
9072;SDS011;4572;41.642;25.370;2023-03-04T07:08:52;10.27;;;8.53;;
9072;SDS011;4572;41.642;25.370;2023-03-04T07:11:18;12.90;;;8.90;;
9072;SDS011;4572;41.642;25.370;2023-03-04T07:13:44;10.70;;;9.13;;
9072;SDS011;4572;41.642;25.370;2023-03-04T07:16:11;11.07;;;9.03;;
9072;SDS011;4572;41.642;25.370;2023-03-04T07:18:38;12.90;;;9.43;;
9072;SDS011;4572;41.642;25.370;2023-03-04T07:21:04;13.10;;;9.80;;
9072;SDS011;4572;41.642;25.370;2023-03-04T07:23:30;17.33;;;10.93;;
9072;SDS011;4572;41.642;25.370;2023-03-04T07:25:55;15.27;;;11.50;;
9072;SDS011;4572;41.642;25.370;2023-03-04T07:28:21;21.80;;;12.63;;
9072;SDS011;4572;41.642;25.370;2023-03-04T07:30:46;15.37;;;11.47;;
9072;SDS011;4572;41.642;25.370;2023-03-04T07:33:12;17.90;;;12.40;;
9072;SDS011;4572;41.642;25.370;2023-03-04T07:35:38;13.93;;;10.13;;
9072;SDS011;4572;41.642;25.370;2023-03-04T07:38:04;16.67;;;10.83;;
9072;SDS011;4572;41.642;25.370;2023-03-04T07:40:30;15.20;;;10.83;;
9072;SDS011;4572;41.642;25.370;2023-03-04T07:42:55;17.63;;;11.37;;
9072;SDS011;4572;41.642;25.370;2023-03-04T07:45:21;19.07;;;11.10;;
9072;SDS011;4572;41.642;25.370;2023-03-04T07:47:48;13.83;;;11.17;;
9072;SDS011;4572;41.642;25.370;2023-03-04T07:50:14;15.77;;;11.40;;
9072;SDS011;4572;41.642;25.370;2023-03-04T07:52:40;15.20;;;10.80;;
9072;SDS011;4572;41.642;25.370;2023-03-04T07:55:07;15.60;;;11.13;;
9072;SDS011;4572;41.642;25.370;2023-03-04T07:57:33;19.43;;;11.17;;
9072;SDS011;4572;41.642;25.370;2023-03-04T07:59:59;13.43;;;10.13;;
9072;SDS011;4572;41.642;25.370;2023-03-04T08:02:25;14.93;;;10.27;;
9072;SDS011;4572;41.642;25.370;2023-03-04T08:04:50;12.27;;;9.27;;
9072;SDS011;4572;41.642;25.370;2023-03-04T08:07:16;15.50;;;9.93;;
9072;SDS011;4572;41.642;25.370;2023-03-04T08:09:41;18.23;;;9.83;;
9072;SDS011;4572;41.642;25.370;2023-03-04T08:12:07;12.57;;;10.67;;
9072;SDS011;4572;41.642;25.370;2023-03-04T08:14:33;13.87;;;9.70;;
9072;SDS011;4572;41.642;25.370;2023-03-04T08:16:58;14.87;;;10.00;;
9072;SDS011;4572;41.642;25.370;2023-03-04T08:19:24;19.23;;;10.47;;
9072;SDS011;4572;41.642;25.370;2023-03-04T08:21:49;16.90;;;11.37;;
9072;SDS011;4572;41.642;25.370;2023-03-04T08:24:15;14.13;;;10.73;;
9072;SDS011;4572;41.642;25.370;2023-03-04T08:26:42;13.03;;;10.17;;
9072;SDS011;4572;41.642;25.370;2023-03-04T08:29:11;11.60;;;8.90;;
9072;SDS011;4572;41.642;25.370;2023-03-04T08:31:38;13.07;;;8.87;;
9072;SDS011;4572;41.642;25.370;2023-03-04T08:34:04;16.17;;;10.13;;
9072;SDS011;4572;41.642;25.370;2023-03-04T08:36:31;12.43;;;9.80;;
9072;SDS011;4572;41.642;25.370;2023-03-04T08:38:57;18.27;;;11.07;;
9072;SDS011;4572;41.642;25.370;2023-03-04T08:41:23;14.93;;;10.33;;
9072;SDS011;4572;41.642;25.370;2023-03-04T08:43:50;12.30;;;9.30;;
9072;SDS011;4572;41.642;25.370;2023-03-04T08:46:15;12.27;;;9.40;;
9072;SDS011;4572;41.642;25.370;2023-03-04T08:48:41;16.43;;;10.37;;
9072;SDS011;4572;41.642;25.370;2023-03-04T08:51:07;16.40;;;9.77;;
9072;SDS011;4572;41.642;25.370;2023-03-04T08:53:34;19.53;;;10.57;;
9072;SDS011;4572;41.642;25.370;2023-03-04T08:56:00;12.60;;;9.83;;
9072;SDS011;4572;41.642;25.370;2023-03-04T08:58:25;15.40;;;10.03;;
9072;SDS011;4572;41.642;25.370;2023-03-04T09:00:51;14.23;;;10.50;;
9072;SDS011;4572;41.642;25.370;2023-03-04T09:03:17;16.13;;;9.07;;
9072;SDS011;4572;41.642;25.370;2023-03-04T09:05:46;11.53;;;9.03;;
9072;SDS011;4572;41.642;25.370;2023-03-04T09:08:13;11.80;;;9.77;;
9072;SDS011;4572;41.642;25.370;2023-03-04T09:10:39;17.97;;;10.87;;
9072;SDS011;4572;41.642;25.370;2023-03-04T09:13:04;14.27;;;10.53;;
9072;SDS011;4572;41.642;25.370;2023-03-04T09:15:31;14.63;;;9.93;;
9072;SDS011;4572;41.642;25.370;2023-03-04T09:18:00;17.60;;;10.30;;
9072;SDS011;4572;41.642;25.370;2023-03-04T09:20:27;25.50;;;17.23;;
9072;SDS011;4572;41.642;25.370;2023-03-04T09:22:53;18.23;;;12.70;;
9072;SDS011;4572;41.642;25.370;2023-03-04T09:25:18;17.53;;;8.77;;
9072;SDS011;4572;41.642;25.370;2023-03-04T09:27:44;13.33;;;9.60;;
9072;SDS011;4572;41.642;25.370;2023-03-04T09:30:10;15.53;;;9.97;;
9072;SDS011;4572;41.642;25.370;2023-03-04T09:32:36;10.63;;;7.83;;
9072;SDS011;4572;41.642;25.370;2023-03-04T09:35:02;10.73;;;7.97;;
9072;SDS011;4572;41.642;25.370;2023-03-04T09:37:28;14.40;;;10.40;;
9072;SDS011;4572;41.642;25.370;2023-03-04T09:39:53;13.60;;;10.40;;
9072;SDS011;4572;41.642;25.370;2023-03-04T09:42:41;13.73;;;10.37;;
9072;SDS011;4572;41.642;25.370;2023-03-04T09:45:11;16.10;;;11.13;;
9072;SDS011;4572;41.642;25.370;2023-03-04T09:47:40;17.00;;;10.97;;
9072;SDS011;4572;41.642;25.370;2023-03-04T09:50:07;16.03;;;11.00;;
9072;SDS011;4572;41.642;25.370;2023-03-04T09:55:43;17.33;;;11.23;;
9072;SDS011;4572;41.642;25.370;2023-03-04T09:58:19;21.57;;;10.77;;
9072;SDS011;4572;41.642;25.370;2023-03-04T10:01:30;14.47;;;9.30;;
9072;SDS011;4572;41.642;25.370;2023-03-04T10:03:44;12.87;;;9.20;;
9072;SDS011;4572;41.642;25.370;2023-03-04T10:06:15;16.63;;;9.40;;
9072;SDS011;4572;41.642;25.370;2023-03-04T10:08:46;15.40;;;10.50;;
9072;SDS011;4572;41.642;25.370;2023-03-04T10:16:48;14.67;;;10.57;;
9072;SDS011;4572;41.642;25.370;2023-03-04T10:19:29;23.27;;;11.40;;
9072;SDS011;4572;41.642;25.370;2023-03-04T10:22:01;17.37;;;11.57;;
9072;SDS011;4572;41.642;25.370;2023-03-04T10:24:41;14.63;;;11.80;;
9072;SDS011;4572;41.642;25.370;2023-03-04T10:27:06;17.73;;;12.27;;
9072;SDS011;4572;41.642;25.370;2023-03-04T10:29:34;17.30;;;12.00;;
9072;SDS011;4572;41.642;25.370;2023-03-04T10:32:00;14.17;;;11.80;;
9072;SDS011;4572;41.642;25.370;2023-03-04T10:34:26;16.83;;;12.23;;
9072;SDS011;4572;41.642;25.370;2023-03-04T10:36:58;14.83;;;11.07;;
9072;SDS011;4572;41.642;25.370;2023-03-04T10:39:33;16.70;;;11.77;;
9072;SDS011;4572;41.642;25.370;2023-03-04T10:42:02;16.80;;;10.17;;
9072;SDS011;4572;41.642;25.370;2023-03-04T10:47:21;12.57;;;10.10;;
9072;SDS011;4572;41.642;25.370;2023-03-04T10:49:49;16.63;;;11.20;;
9072;SDS011;4572;41.642;25.370;2023-03-04T10:52:38;15.20;;;11.00;;
9072;SDS011;4572;41.642;25.370;2023-03-04T10:55:27;17.20;;;11.97;;
9072;SDS011;4572;41.642;25.370;2023-03-04T10:57:56;12.27;;;10.50;;
9072;SDS011;4572;41.642;25.370;2023-03-04T11:00:34;13.30;;;9.73;;
9072;SDS011;4572;41.642;25.370;2023-03-04T11:05:50;14.70;;;10.13;;
9072;SDS011;4572;41.642;25.370;2023-03-04T11:08:21;22.20;;;10.53;;
9072;SDS011;4572;41.642;25.370;2023-03-04T11:10:47;16.73;;;10.37;;
9072;SDS011;4572;41.642;25.370;2023-03-04T11:13:21;15.50;;;10.20;;
9072;SDS011;4572;41.642;25.370;2023-03-04T11:15:52;16.40;;;10.90;;
9072;SDS011;4572;41.642;25.370;2023-03-04T11:18:22;15.63;;;9.83;;
9072;SDS011;4572;41.642;25.370;2023-03-04T11:20:51;14.33;;;9.00;;
9072;SDS011;4572;41.642;25.370;2023-03-04T11:23:21;17.67;;;9.43;;
9072;SDS011;4572;41.642;25.370;2023-03-04T11:26:11;15.17;;;9.00;;
9072;SDS011;4572;41.642;25.370;2023-03-04T11:31:19;12.23;;;8.47;;
9072;SDS011;4572;41.642;25.370;2023-03-04T11:33:49;20.00;;;9.57;;
9072;SDS011;4572;41.642;25.370;2023-03-04T11:38:57;10.70;;;7.90;;
9072;SDS011;4572;41.642;25.370;2023-03-04T11:43:51;9.60;;;8.03;;
9072;SDS011;4572;41.642;25.370;2023-03-04T11:57:49;12.70;;;7.90;;
9072;SDS011;4572;41.642;25.370;2023-03-04T12:03:03;10.67;;;6.50;;
9072;SDS011;4572;41.642;25.370;2023-03-04T12:06:07;9.23;;;7.67;;
9072;SDS011;4572;41.642;25.370;2023-03-04T12:08:38;10.30;;;7.73;;
9072;SDS011;4572;41.642;25.370;2023-03-04T12:25:02;10.60;;;6.63;;
9072;SDS011;4572;41.642;25.370;2023-03-04T12:27:46;11.03;;;7.00;;
9072;SDS011;4572;41.642;25.370;2023-03-04T12:36:08;7.60;;;5.50;;
9072;SDS011;4572;41.642;25.370;2023-03-04T12:44:14;10.90;;;7.23;;
9072;SDS011;4572;41.642;25.370;2023-03-04T12:55:34;15.80;;;6.23;;
9072;SDS011;4572;41.642;25.370;2023-03-04T12:58:02;5.67;;;4.90;;
9072;SDS011;4572;41.642;25.370;2023-03-04T13:03:44;13.30;;;5.67;;
9072;SDS011;4572;41.642;25.370;2023-03-04T13:09:04;8.00;;;6.73;;
9072;SDS011;4572;41.642;25.370;2023-03-04T13:11:43;11.13;;;6.33;;
9072;SDS011;4572;41.642;25.370;2023-03-04T13:16:47;16.73;;;7.37;;
9072;SDS011;4572;41.642;25.370;2023-03-04T13:22:32;17.10;;;6.70;;
9072;SDS011;4572;41.642;25.370;2023-03-04T13:25:26;9.63;;;7.37;;
9072;SDS011;4572;41.642;25.370;2023-03-04T13:51:24;19.73;;;7.60;;
9072;SDS011;4572;41.642;25.370;2023-03-04T14:06:58;9.43;;;6.87;;
9072;SDS011;4572;41.642;25.370;2023-03-04T14:09:27;15.63;;;7.17;;
9072;SDS011;4572;41.642;25.370;2023-03-04T14:11:55;14.77;;;7.87;;
9072;SDS011;4572;41.642;25.370;2023-03-04T14:14:26;7.50;;;6.37;;
9072;SDS011;4572;41.642;25.370;2023-03-04T14:16:55;12.03;;;7.20;;
9072;SDS011;4572;41.642;25.370;2023-03-04T14:19:27;11.10;;;7.80;;
9072;SDS011;4572;41.642;25.370;2023-03-04T14:21:53;10.50;;;6.87;;
9072;SDS011;4572;41.642;25.370;2023-03-04T14:24:19;29.63;;;7.90;;
9072;SDS011;4572;41.642;25.370;2023-03-04T14:26:45;11.40;;;7.80;;
9072;SDS011;4572;41.642;25.370;2023-03-04T14:29:21;60.70;;;11.20;;
9072;SDS011;4572;41.642;25.370;2023-03-04T14:31:48;21.77;;;8.23;;
9072;SDS011;4572;41.642;25.370;2023-03-04T14:34:16;10.60;;;7.00;;
9072;SDS011;4572;41.642;25.370;2023-03-04T14:36:48;14.17;;;7.90;;
9072;SDS011;4572;41.642;25.370;2023-03-04T14:39:16;10.13;;;7.00;;
9072;SDS011;4572;41.642;25.370;2023-03-04T14:41:43;7.93;;;6.23;;
9072;SDS011;4572;41.642;25.370;2023-03-04T14:44:18;9.40;;;7.30;;
9072;SDS011;4572;41.642;25.370;2023-03-04T14:46:46;13.23;;;7.57;;
9072;SDS011;4572;41.642;25.370;2023-03-04T14:49:13;7.30;;;6.00;;
9072;SDS011;4572;41.642;25.370;2023-03-04T14:51:41;12.87;;;7.03;;
9072;SDS011;4572;41.642;25.370;2023-03-04T14:54:31;10.23;;;7.63;;
9072;SDS011;4572;41.642;25.370;2023-03-04T14:57:01;11.37;;;7.77;;
9072;SDS011;4572;41.642;25.370;2023-03-04T14:59:45;10.23;;;7.23;;
9072;SDS011;4572;41.642;25.370;2023-03-04T15:02:23;8.10;;;6.47;;
9072;SDS011;4572;41.642;25.370;2023-03-04T15:04:59;13.63;;;7.17;;
9072;SDS011;4572;41.642;25.370;2023-03-04T15:07:30;9.07;;;7.07;;
9072;SDS011;4572;41.642;25.370;2023-03-04T15:09:58;12.17;;;8.03;;
9072;SDS011;4572;41.642;25.370;2023-03-04T15:12:28;15.00;;;9.03;;
9072;SDS011;4572;41.642;25.370;2023-03-04T15:14:56;114.40;;;15.67;;
9072;SDS011;4572;41.642;25.370;2023-03-04T15:17:33;29.23;;;8.40;;
9072;SDS011;4572;41.642;25.370;2023-03-04T15:22:34;15.00;;;8.63;;
9072;SDS011;4572;41.642;25.370;2023-03-04T15:25:01;10.03;;;8.07;;
9072;SDS011;4572;41.642;25.370;2023-03-04T15:27:27;18.63;;;8.00;;
9072;SDS011;4572;41.642;25.370;2023-03-04T15:29:54;12.63;;;8.50;;
9072;SDS011;4572;41.642;25.370;2023-03-04T15:32:27;10.20;;;8.40;;
9072;SDS011;4572;41.642;25.370;2023-03-04T15:34:53;16.83;;;7.97;;
9072;SDS011;4572;41.642;25.370;2023-03-04T15:37:20;13.13;;;8.77;;
9072;SDS011;4572;41.642;25.370;2023-03-04T15:39:47;19.20;;;10.67;;
9072;SDS011;4572;41.642;25.370;2023-03-04T15:42:13;18.97;;;12.30;;
9072;SDS011;4572;41.642;25.370;2023-03-04T15:44:39;21.60;;;10.10;;
9072;SDS011;4572;41.642;25.370;2023-03-04T15:47:04;10.33;;;7.30;;
9072;SDS011;4572;41.642;25.370;2023-03-04T15:49:33;19.50;;;8.13;;
9072;SDS011;4572;41.642;25.370;2023-03-04T15:51:59;12.57;;;8.00;;
9072;SDS011;4572;41.642;25.370;2023-03-04T15:54:27;14.43;;;7.70;;
9072;SDS011;4572;41.642;25.370;2023-03-04T15:56:53;13.17;;;8.07;;
9072;SDS011;4572;41.642;25.370;2023-03-04T15:59:18;12.50;;;8.57;;
9072;SDS011;4572;41.642;25.370;2023-03-04T16:01:44;10.93;;;8.30;;
9072;SDS011;4572;41.642;25.370;2023-03-04T16:04:13;13.07;;;8.60;;
9072;SDS011;4572;41.642;25.370;2023-03-04T16:06:40;12.33;;;9.40;;
9072;SDS011;4572;41.642;25.370;2023-03-04T16:09:08;18.57;;;11.23;;
9072;SDS011;4572;41.642;25.370;2023-03-04T16:11:38;27.77;;;11.50;;
9072;SDS011;4572;41.642;25.370;2023-03-04T16:14:08;31.00;;;17.40;;
9072;SDS011;4572;41.642;25.370;2023-03-04T16:16:35;20.37;;;12.73;;
9072;SDS011;4572;41.642;25.370;2023-03-04T16:19:01;31.77;;;16.80;;
9072;SDS011;4572;41.642;25.370;2023-03-04T16:21:26;18.63;;;10.00;;
9072;SDS011;4572;41.642;25.370;2023-03-04T16:23:52;11.23;;;9.20;;
9072;SDS011;4572;41.642;25.370;2023-03-04T16:26:19;17.33;;;9.40;;
9072;SDS011;4572;41.642;25.370;2023-03-04T16:28:47;12.33;;;8.67;;
9072;SDS011;4572;41.642;25.370;2023-03-04T16:31:13;17.00;;;10.43;;
9072;SDS011;4572;41.642;25.370;2023-03-04T16:33:39;14.60;;;9.63;;
9072;SDS011;4572;41.642;25.370;2023-03-04T16:36:24;15.77;;;10.17;;
9072;SDS011;4572;41.642;25.370;2023-03-04T16:38:51;35.93;;;11.70;;
9072;SDS011;4572;41.642;25.370;2023-03-04T16:41:19;31.70;;;10.70;;
9072;SDS011;4572;41.642;25.370;2023-03-04T16:43:47;18.07;;;12.13;;
9072;SDS011;4572;41.642;25.370;2023-03-04T16:46:12;29.70;;;13.03;;
9072;SDS011;4572;41.642;25.370;2023-03-04T16:48:38;20.13;;;12.80;;